Aviation Digital Data Service (ADDS)

Output produced by METARs form (1353 UTC 24 August 2019)
found at http://www.aviationweather.gov/metar/data/
 
Forecast for: EGCC (MANCHESTER INTL , GB)
Text: TAF EGCC 241056Z 2412/2518 17008KT 9999 FEW045
Forecast period: 1200 UTC 24 August 2019 to 1800 UTC 25 August 2019
Forecast type: FROM: standard forecast or significant change
Winds: from the S (170 degrees) at 9 MPH (8 knots; 4.1 m/s)
Visibility: 6 or more miles 10+ km)
Ceiling: at least 12,000 feet AGL
Clouds: few clouds at 4500 feet AGL
Weather: no significant weather forecast for this period